Alloy, West Virginia
Current Conditions -  °F | °C
As of 2:54 PM on Monday 26 Jan 2015 (Local Time) from KCRW Reporting Station
Light Snow Light Snow  
Wind Chill: -7°   Ceiling: 600
Heat Index: -3°   Visibility: 4mi
Dew Point: -5°   Wind: 8mph
Humidity: 85%   Direction: 270°W
Pressure: 29.78"   Gusts: NA
Location:  38.14°N, 81.27°W
Report Text: KCRW 261954Z 27007KT 4SM -SN BR OVC006 M03/M05 A2978 RMK AO2 SLP090 VLY FG P0001 T10281050
Loading
Personal Weather Stations






























Interactive Weather Map New forecast layout! Learn more

10-Day Weather Forecast

Advertisements
Track Severe Weather on mobile